Purdue Univ, IN

1:40 PM EDT on August 22, 2014 (GMT -0400)
Purdue Univ | Change Station
CLOSE
Current Station
Airport
Location: Lafayette,
Elevation: 604 ft
Nearby Weather Stations
Active Advisory: Flood Warning, Flash Flood Watch Active Notice: Local Storm Report

Elev 604 ft 40.41 °N, 86.93 °W | Updated 46 minutes ago

Scattered Clouds
Scattered Clouds
76 °F
Feels Like 76 °F
N
5
Wind Variable Wind from WSW

Today
High -- | Low -- °F
--% Chance of Precip.
Yesterday
High -- | Low -- °F
Precip. -- in
7:05 AM 8:35 PM
Waning Crescent, 7% visible
Pressure 29.97 in
Visibility 10.0 miles
Clouds Scattered Clouds 1200 ft
Dew Point 72 °F
Humidity 87%
Rainfall 0.46 in
Snow Depth Not available.
UV 8 out of 12
Pollen 10.40 out of 12
Air Quality Not available.
Flu Activity Not available.
METAR KLAF 221654Z 25004KT 10SM SCT012 24/22 A2999 RMK AO2 SLP148 T02440222

More Conditions Fewer Conditions

Pressure 29.97 in
Visibility 10.0 miles
Clouds Scattered Clouds 1200 ft
Dew Point 72 °F
Humidity 87%
Rainfall 0.46 in
Snow Depth Not available.
UV 8 out of 12
Pollen 10.40 out of 12
Air Quality Not available.
Flu Activity Not available.
METAR KLAF 221654Z 25004KT 10SM SCT012 24/22 A2999 RMK AO2 SLP148 T02440222

More Conditions Fewer Conditions

10-Day Weather Forecast

Almanac

Astronomy

Aug. 22, 2014 Rise Set
Actual Time 7:05 AM EDT 8:35 PM EDT
Civil Twilight 6:36 AM EDT 9:03 PM EDT
Nautical Twilight 6:02 AM EDT 9:38 PM EDT
Astronomical Twilight 5:25 AM EDT 10:14 PM EDT
Moon 4:27 AM EDT 6:43 PM EDT
Length of Visible Light 14h 26m
Length of Day
13h 29m
Tomorrow will be 2m 28s shorter.
Waning Crescent, 7% of the Moon is Illuminated
Today
Waning Crescent
Aug 25
New
Sep 2
First Quarter
Sep 8
Full
Sep 15
Last Quarter

Today's Extremes

State Highs State Lows

Community

WunderPhotos

Upload Photos

1,746,206 photos uploaded!

WunderBlogs® & News

Nearby

Snow Depth

Station Depth Elevation
No new snow has been reported.

Earthquake Activity

City Distance Mag. Time & Date
No recent earthquake activity has been reported nearby.
Minimum magnitude displayed is 2.5.

Coastal Water Temperatures

Place Temperature
No Stations Reporting

Nearby Weather Stations